Latest Weather Observations for Cape Bruny AWS

IDT60901

Issued at 6:41 pm EST Wednesday 23 May 2018 (issued every 10 minutes, with the page automatically refreshed every 10 minutes)

About weather observations | Map of Hobart area stations | Latest observations for Hobart area | Other Formats
Station Details ID: 094198 Name: CAPE BRUNY (CAPE BRUNY) Lat: -43.49 Lon: 147.14 Height: 59.7 m
Data from the previous 72 hours. | See also: Recent months at Cape Bruny AWS
Date/Time
EST
Temp
°C
App
Temp
°C
Dew
Point
°C
Rel
Hum
%
Delta-T
°C
Wind Press
QNH
hPa
Press
MSL
hPa
Rain since
9am
mm
Dir  Spd
km/h
Gust
km/h
Spd
kts
Gust
kts
23/06:34pm 12.5 3.1 7.0 69 2.6 WSW 46 65 25 35 1016.5 1016.6 0.0
23/06:30pm 12.5 3.5 7.2 70 2.6 WSW 44 57 24 31 1016.4 1016.5 0.0
23/06:00pm 12.7 2.0 6.3 65 3.0 WSW 52 70 28 38 1015.8 1015.9 0.0
23/05:37pm 12.9 3.1 6.9 67 2.9 WSW 48 67 26 36 1015.7 1015.8 0.0
23/05:30pm 13.1 3.6 6.7 65 3.1 WSW 46 61 25 33 1015.6 1015.7 0.0
23/05:00pm 13.5 3.6 6.4 62 3.4 W 48 69 26 37 1015.2 1015.3 0.0
23/04:30pm 13.2 2.1 6.5 64 3.2 WSW 54 76 29 41 1015.0 1015.1 0.0
23/04:18pm 13.6 3.3 6.5 62 3.4 WSW 50 70 27 38 1015.0 1015.1 0.0
23/04:00pm 13.6 4.1 6.7 63 3.3 WSW 46 57 25 31 1014.9 1015.0 0.0
23/03:30pm 14.2 5.1 6.8 61 3.6 W 44 63 24 34 1014.7 1014.8 0.0
23/03:10pm 14.4 5.3 6.0 57 4.0 W 43 61 23 33 1014.6 1014.7 0.0
23/03:00pm 14.4 4.4 6.3 58 3.9 W 48 65 26 35 1014.6 1014.7 0.0
23/02:33pm 14.6 5.8 7.4 62 3.6 WSW 43 61 23 33 1014.6 1014.7 0.0
23/02:30pm 14.8 6.6 8.1 64 3.4 W 41 52 22 28 1014.7 1014.8 0.0
23/02:00pm 14.2 5.8 8.8 70 2.7 W 43 57 23 31 1014.7 1014.8 0.0
23/01:37pm 14.5 5.3 8.2 66 3.2 W 46 65 25 35 1014.7 1014.8 0.0
23/01:30pm 14.8 5.6 8.1 64 3.4 W 46 57 25 31 1014.6 1014.7 0.0
23/01:00pm 14.6 3.9 8.1 65 3.3 W 54 72 29 39 1014.0 1014.1 0.0
23/12:34pm 14.3 4.3 7.8 65 3.2 WNW 50 69 27 37 1014.3 1014.4 0.0
23/12:30pm 13.9 3.9 7.7 66 3.1 WNW 50 63 27 34 1014.4 1014.5 0.0
23/12:11pm 14.1 3.7 7.9 66 3.1 W 52 83 28 45 1014.3 1014.4 0.0
23/12:09pm 14.1 4.9 7.9 66 3.1 W 46 65 25 35 1014.5 1014.6 0.0
23/12:00pm 13.9 5.1 7.9 67 3.0 W 44 59 24 32 1015.0 1015.1 0.0
23/11:48am 14.0 5.5 6.8 62 3.5 W 41 63 22 34 1015.1 1015.2 0.0
23/11:30am 13.6 7.0 7.8 68 2.9 WNW 32 41 17 22 1015.9 1016.0 0.0
23/11:00am 13.4 4.7 7.6 68 2.8 WNW 43 54 23 29 1016.0 1016.1 0.0
23/10:30am 13.7 6.4 7.2 65 3.2 WNW 35 50 19 27 1015.9 1016.0 0.0
23/10:00am 14.1 6.1 7.6 65 3.2 WNW 39 54 21 29 1015.7 1015.8 0.0
23/09:30am 13.4 5.7 7.2 66 3.0 W 37 48 20 26 1015.7 1015.8 0.0
23/09:00am 13.1 5.4 7.3 68 2.8 WNW 37 48 20 26 1015.4 1015.5 0.0
23/08:41am 12.8 5.9 7.3 69 2.7 WNW 33 54 18 29 1015.3 1015.4 0.0
23/08:30am 12.6 4.9 7.1 69 2.7 NW 37 50 20 27 1015.2 1015.3 0.0
23/08:00am 12.5 4.0 6.8 68 2.7 NW 41 59 22 32 1015.4 1015.5 0.0
23/07:49am 12.3 4.9 6.6 68 2.7 NW 35 57 19 31 1015.3 1015.4 0.0
23/07:30am 12.3 7.1 7.4 72 2.4 NW 24 39 13 21 1015.4 1015.5 0.0
23/07:00am 12.1 6.6 7.4 73 2.3 W 26 35 14 19 1015.6 1015.7 0.0
23/06:30am 12.3 7.4 7.0 70 2.6 WNW 22 43 12 23 1015.7 1015.8 0.0
23/06:25am 12.2 7.7 7.1 71 2.5 W 20 41 11 22 1015.6 1015.7 0.0
23/06:00am 12.3 9.9 7.0 70 2.5 WNW 9 20 5 11 1015.6 1015.7 0.0
23/05:30am 12.7 8.9 7.4 70 2.6 W 17 26 9 14 1015.4 1015.5 0.0
23/05:00am 12.4 7.0 7.9 74 2.2 W 26 35 14 19 1015.1 1015.2 0.0
23/04:30am 12.6 6.0 7.9 73 2.3 W 32 41 17 22 1015.2 1015.3 0.0
23/04:03am 12.2 3.7 8.7 79 1.7 WSW 43 61 23 33 1015.1 1015.2 0.0
23/04:00am 12.1 4.0 8.8 80 1.6 WSW 41 56 22 30 1015.3 1015.4 0.0
23/03:31am 11.7 6.1 8.9 83 1.4 W 28 46 15 25 1015.3 1015.4 0.0
23/03:30am 11.7 6.1 8.9 83 1.4 W 28 44 15 24 1015.4 1015.5 0.0
23/03:00am 12.4 7.4 8.1 75 2.1 W 24 30 13 16 1015.7 1015.8 0.0
23/02:30am 11.9 7.1 7.2 73 2.3 WNW 22 35 12 19 1015.4 1015.5 0.0
23/02:00am 11.6 6.3 6.9 73 2.2 NW 24 35 13 19 1015.6 1015.7 0.0
23/01:30am 11.2 6.3 6.9 75 2.0 WNW 22 33 12 18 1016.0 1016.1 0.0
23/01:00am 10.9 4.7 6.3 73 2.2 NW 28 35 15 19 1016.1 1016.2 0.0
23/12:30am 10.8 4.1 5.8 71 2.3 NW 30 37 16 20 1016.4 1016.5 0.0
23/12:00am 10.5 5.3 5.3 70 2.4 WNW 22 32 12 17 1016.8 1016.9 0.0
 
Date/Time
EST
Temp
°C
App
Temp
°C
Dew
Point
°C
Rel
Hum
%
Delta-T
°C
Wind Press
QNH
hPa
Press
MSL
hPa
Rain since
9am
mm
Dir  Spd
km/h
Gust
km/h
Spd
kts
Gust
kts
22/11:30pm 10.2 3.7 4.8 69 2.4 W 28 33 15 18 1017.0 1017.1 0.0
22/11:00pm 9.9 4.1 4.3 68 2.5 WNW 24 30 13 16 1017.3 1017.4 0.0
22/10:30pm 10.1 4.3 4.3 67 2.6 WNW 24 30 13 16 1017.2 1017.3 0.0
22/10:00pm 10.3 4.2 2.9 60 3.2 WNW 24 33 13 18 1017.3 1017.4 0.0
22/09:30pm 10.6 3.1 4.3 65 2.8 W 33 50 18 27 1017.3 1017.4 0.0
22/09:09pm 10.6 1.9 4.3 65 2.8 W 39 57 21 31 1017.3 1017.4 0.0
22/09:00pm 10.6 2.0 4.9 68 2.6 WSW 39 54 21 29 1017.3 1017.4 0.0
22/08:30pm 10.6 3.2 5.2 69 2.5 W 33 43 18 23 1016.9 1017.0 0.0
22/08:00pm 10.8 2.8 5.6 70 2.4 W 37 48 20 26 1017.1 1017.2 0.0
22/07:30pm 10.8 3.4 5.1 68 2.6 W 33 48 18 26 1017.0 1017.1 0.0
22/07:00pm 10.6 1.0 4.3 65 2.8 W 44 61 24 33 1016.5 1016.6 0.0
22/06:37pm 10.7 2.3 5.7 71 2.3 W 39 61 21 33 1016.2 1016.3 0.0
22/06:30pm 10.8 1.7 5.8 71 2.3 WSW 43 54 23 29 1016.2 1016.3 0.0
22/06:00pm 10.6 0.3 4.9 68 2.6 WSW 48 72 26 39 1016.2 1016.3 0.0
22/05:52pm 10.5 -0.6 4.4 66 2.7 WSW 52 72 28 39 1016.1 1016.2 0.0
22/05:30pm 10.5 -0.2 4.4 66 2.7 WSW 50 67 27 36 1015.9 1016.0 0.0
22/05:04pm 10.6 -1.5 4.1 64 2.9 WSW 57 76 31 41 1015.5 1015.6 0.0
22/05:00pm 10.5 -2.1 3.8 63 3.0 WSW 59 72 32 39 1015.5 1015.6 0.0
22/04:38pm 10.8 0.2 4.9 67 2.7 WSW 50 70 27 38 1015.3 1015.4 0.0
22/04:30pm 10.8 -0.6 4.7 66 2.8 WSW 54 67 29 36 1015.3 1015.4 0.0
22/04:06pm 10.9 -0.9 4.6 65 2.8 WSW 56 74 30 40 1015.1 1015.2 0.0
22/04:00pm 10.8 -1.1 4.3 64 2.9 WSW 56 69 30 37 1015.1 1015.2 0.0
22/03:30pm 10.7 -1.5 3.5 61 3.2 WSW 57 76 31 41 1014.6 1014.7 0.0
22/03:09pm 11.0 -1.8 4.5 64 2.9 WSW 61 80 33 43 1014.4 1014.5 0.0
22/03:00pm 11.3 -1.1 4.7 64 3.0 WSW 59 76 32 41 1014.3 1014.4 0.0
22/02:30pm 10.3 -2.0 5.1 70 2.4 WSW 59 80 32 43 1014.4 1014.5 0.0
22/02:00pm 11.1 -1.4 4.1 62 3.1 WSW 59 80 32 43 1013.9 1014.0 0.0
22/01:30pm 10.4 -1.8 5.6 72 2.2 WSW 59 78 32 42 1013.6 1013.7 0.0
22/01:19pm 10.6 -2.0 5.6 71 2.3 WSW 61 80 33 43 1013.5 1013.6 0.0
22/01:00pm 11.0 -2.4 5.3 68 2.6 WSW 65 80 35 43 1013.3 1013.4 0.0
22/12:32pm 11.3 -2.1 5.2 66 2.8 WSW 65 83 35 45 1013.2 1013.3 0.0
22/12:30pm 11.5 -2.7 5.2 65 2.9 WSW 69 83 37 45 1013.1 1013.2 0.0
22/12:14pm 11.5 -3.9 5.6 67 2.7 WSW 76 96 41 52 1012.8 1012.9 0.0
22/12:09pm 11.6 -3.3 4.3 61 3.3 WSW 72 96 39 52 1012.7 1012.8 0.0
22/12:00pm 11.9 -1.3 4.4 60 3.4 WSW 63 82 34 44 1012.7 1012.8 0.0
22/11:30am 11.5 -2.4 4.9 64 3.0 WSW 67 87 36 47 1012.9 1013.0 0.0
22/11:04am 10.9 -3.8 5.4 69 2.5 WSW 72 91 39 49 1012.5 1012.6 0.0
22/11:00am 11.0 -4.2 5.1 67 2.7 WSW 74 91 40 49 1012.6 1012.7 0.0
22/10:30am 10.9 -4.5 3.9 62 3.1 WSW 74 96 40 52 1012.1 1012.1 0.0
22/10:01am 11.0 -4.0 4.2 63 3.0 WSW 72 91 39 49 1011.9 1011.9 0.0
22/10:00am 11.1 -4.1 5.0 66 2.8 WSW 74 91 40 49 1012.0 1012.0 0.0
22/09:30am 10.6 -3.9 4.5 66 2.7 WSW 70 93 38 50 1011.5 1011.5 0.0
22/09:00am 10.2 -3.0 4.4 67 2.6 WSW 63 87 34 47 1011.2 1011.2 0.8
22/08:30am 10.7 -4.1 5.0 68 2.6 W 72 96 39 52 1010.8 1010.8 0.8
22/08:00am 10.0 -3.0 3.5 64 2.8 W 61 82 33 44 1010.3 1010.3 0.8
22/07:30am 9.4 -2.1 6.1 80 1.5 W 56 83 30 45 1010.0 1010.0 0.8
22/07:00am 10.4 -1.5 4.1 65 2.8 W 56 80 30 43 1009.2 1009.2 0.8
22/06:30am 9.9 -2.0 5.1 72 2.2 W 57 80 31 43 1008.7 1008.7 0.8
22/06:00am 10.2 -1.5 5.4 72 2.2 W 56 76 30 41 1008.4 1008.4 0.8
22/05:30am 10.0 -2.0 4.6 69 2.4 W 57 83 31 45 1008.2 1008.2 0.6
22/05:00am 9.2 -1.8 6.8 85 1.1 W 54 83 29 45 1008.0 1008.0 0.6
22/04:30am 10.4 -0.2 6.7 78 1.7 W 52 70 28 38 1007.5 1007.5 0.4
22/04:03am 9.9 -1.3 5.9 76 1.8 W 54 76 29 41 1007.7 1007.7 0.4
22/04:00am 10.0 -1.2 5.8 75 1.9 W 54 69 29 37 1007.7 1007.7 0.4
22/03:30am 9.7 -1.9 6.6 81 1.5 WSW 57 82 31 44 1007.6 1007.6 0.4
22/03:01am 10.5 -2.1 5.5 71 2.3 WSW 61 83 33 45 1007.1 1007.1 0.0
22/03:00am 10.7 -1.3 6.5 75 2.0 WSW 59 74 32 40 1007.2 1007.2 0.0
22/02:30am 11.3 -0.4 6.0 70 2.5 W 57 78 31 42 1006.8 1006.8 0.0
22/02:00am 11.4 -2.0 5.3 66 2.8 W 65 83 35 45 1006.0 1006.0 0.0
22/01:30am 11.2 -2.0 4.7 64 3.0 W 63 98 34 53 1005.8 1005.8 0.0
22/01:00am 10.9 -3.6 6.6 75 2.0 WSW 72 91 39 49 1005.5 1005.5 0.0
22/12:59am 11.2 -3.1 7.5 78 1.8 WSW 72 91 39 49 1005.5 1005.5 0.0
22/12:49am 10.7 -3.1 7.9 83 1.4 WSW 70 91 38 49 1005.3 1005.3 0.0
22/12:30am 11.4 0.4 9.3 87 1.1 W 57 78 31 42 1005.6 1005.6 0.0
22/12:00am 11.3 -0.6 8.7 84 1.3 WSW 61 83 33 45 1004.8 1004.8 0.0
 
Date/Time
EST
Temp
°C
App
Temp
°C
Dew
Point
°C
Rel
Hum
%
Delta-T
°C
Wind Press
QNH
hPa
Press
MSL
hPa
Rain since
9am
mm
Dir  Spd
km/h
Gust
km/h
Spd
kts
Gust
kts
21/11:30pm 12.2 0.8 7.7 74 2.2 W 57 76 31 41 1004.4 1004.4 0.0
21/11:00pm 11.5 -1.6 8.2 80 1.6 W 67 91 36 49 1004.0 1004.0 0.0
21/10:30pm 12.0 0.8 8.5 79 1.7 W 57 78 31 42 1004.6 1004.6 0.0
21/10:00pm 12.1 1.5 8.6 79 1.7 W 54 74 29 40 1004.5 1004.5 0.0
21/09:30pm 12.0 1.0 8.3 78 1.8 W 56 74 30 40 1004.6 1004.6 0.0
21/09:00pm 12.2 2.7 8.5 78 1.8 W 48 70 26 38 1004.5 1004.5 0.0
21/08:30pm 12.0 4.3 8.7 80 1.6 W 39 54 21 29 1004.6 1004.6 0.0
21/08:03pm 12.9 6.3 7.6 70 2.6 W 32 52 17 28 1003.9 1003.9 0.0
21/08:00pm 12.9 7.2 8.4 74 2.3 W 28 37 15 20 1004.0 1004.0 0.0
21/07:30pm 12.4 5.5 8.7 78 1.8 W 35 48 19 26 1004.0 1004.0 0.0
21/07:00pm 13.3 4.7 8.2 71 2.6 W 43 65 23 35 1003.6 1003.6 0.0
21/06:30pm 13.5 4.8 7.7 68 2.9 W 43 59 23 32 1003.8 1003.8 0.0
21/06:00pm 13.4 5.6 8.3 71 2.6 W 39 57 21 31 1003.8 1003.8 0.0
21/05:56pm 13.6 6.4 7.8 68 2.9 W 35 57 19 31 1003.8 1003.8 0.0
21/05:30pm 13.3 5.9 8.4 72 2.4 W 37 52 20 28 1003.5 1003.5 0.0
21/05:00pm 13.3 4.9 7.3 67 2.9 W 41 57 22 31 1003.8 1003.8 0.0
21/04:30pm 12.9 5.2 7.1 68 2.8 W 37 48 20 26 1003.9 1003.9 0.0
21/04:07pm 13.2 4.3 7.0 66 3.0 W 43 61 23 33 1003.9 1003.9 0.0
21/04:00pm 13.1 3.9 6.5 64 3.2 W 44 57 24 31 1003.8 1003.8 0.0
21/03:31pm 13.1 2.3 6.2 63 3.3 W 52 72 28 39 1003.8 1003.8 0.0
21/03:30pm 13.0 2.6 5.9 62 3.4 W 50 65 27 35 1003.8 1003.8 0.0
21/03:00pm 12.9 3.8 6.9 67 2.9 WNW 44 61 24 33 1004.5 1004.5 0.0
21/02:30pm 12.9 3.5 7.1 68 2.8 WNW 46 72 25 39 1004.4 1004.4 0.0
21/02:26pm 13.0 4.6 7.5 69 2.7 WNW 41 59 22 32 1004.5 1004.5 0.0
21/02:00pm 13.2 4.2 7.4 68 2.8 WNW 44 61 24 33 1005.0 1005.0 0.0
21/01:30pm 13.1 5.0 7.1 67 2.9 WNW 39 52 21 28 1005.1 1005.1 0.0
21/01:00pm 13.4 4.7 7.6 68 2.9 WNW 43 56 23 30 1005.4 1005.4 0.0
21/12:30pm 13.8 5.5 7.6 66 3.1 WNW 41 56 22 30 1005.6 1005.6 0.0
21/12:05pm 13.4 5.4 7.4 67 2.9 WNW 39 57 21 31 1005.8 1005.8 0.0
21/12:00pm 13.4 5.7 7.0 65 3.1 WNW 37 50 20 27 1006.0 1006.0 0.0
21/11:30am 13.4 5.8 7.4 67 2.9 WNW 37 52 20 28 1006.9 1006.9 0.0
21/11:00am 13.0 5.1 7.7 70 2.6 WNW 39 54 21 29 1007.4 1007.4 0.0
21/10:46am 12.7 5.4 7.0 68 2.8 WNW 35 54 19 29 1007.5 1007.5 0.0
21/10:30am 12.0 3.5 6.9 71 2.4 WNW 41 56 22 30 1007.6 1007.6 0.0
21/10:00am 11.9 2.7 6.4 69 2.6 WNW 44 69 24 37 1007.7 1007.7 0.0
21/09:51am 12.0 3.8 6.5 69 2.6 WNW 39 57 21 31 1007.8 1007.8 0.0
21/09:30am 11.9 4.0 6.0 67 2.8 WNW 37 48 20 26 1008.0 1008.0 0.0
21/09:00am 11.4 2.2 5.5 67 2.7 WNW 43 54 23 29 1008.3 1008.3 8.2
21/08:39am 11.3 2.9 5.4 67 2.7 WNW 39 57 21 31 1008.2 1008.2 8.2
21/08:30am 11.4 2.7 5.9 69 2.6 WNW 41 56 22 30 1008.5 1008.5 8.2
21/08:00am 11.0 3.0 5.5 69 2.5 WNW 37 56 20 30 1008.0 1008.0 8.2
21/07:51am 10.9 2.7 5.0 67 2.7 WNW 37 56 20 30 1007.8 1007.8 8.2
21/07:30am 10.8 2.6 4.9 67 2.7 WNW 37 50 20 27 1007.9 1007.9 8.2
21/07:00am 10.5 3.2 4.6 67 2.7 NW 32 41 17 22 1008.3 1008.3 8.2
21/06:30am 10.6 5.7 5.2 69 2.5 W 20 26 11 14 1008.5 1008.5 8.2
21/06:00am 10.3 3.8 4.9 69 2.4 W 28 35 15 19 1008.5 1008.5 8.2
21/05:30am 10.7 3.6 5.3 69 2.5 W 32 39 17 21 1008.3 1008.3 8.2
21/05:00am 10.7 3.7 6.1 73 2.2 W 32 46 17 25 1008.4 1008.4 8.2
21/04:30am 10.7 4.5 6.1 73 2.1 W 28 39 15 21 1008.2 1008.2 8.2
21/04:00am 10.3 2.8 6.1 75 2.0 W 35 46 19 25 1008.2 1008.2 8.2
21/03:51am 10.2 2.4 6.7 79 1.6 W 37 56 20 30 1008.3 1008.3 8.2
21/03:30am 10.5 1.6 6.8 78 1.8 W 43 56 23 30 1008.1 1008.1 8.2
21/03:20am 10.0 1.5 6.9 81 1.5 W 41 59 22 32 1008.1 1008.1 8.2
21/03:00am 10.0 1.6 7.3 83 1.3 W 41 56 22 30 1008.3 1008.3 8.2
21/02:35am 10.0 2.0 7.6 85 1.2 W 39 57 21 31 1008.4 1008.4 8.0
21/02:30am 10.0 1.1 7.8 86 1.1 W 44 57 24 31 1008.4 1008.4 8.0
21/02:00am 9.9 2.0 7.8 87 1.0 W 39 54 21 29 1008.4 1008.4 8.0
21/01:30am 10.1 1.8 7.7 85 1.2 W 41 57 22 31 1008.4 1008.4 7.8
21/01:00am 9.9 1.1 7.2 83 1.3 W 43 54 23 29 1008.3 1008.3 7.8
21/12:30am 10.4 2.0 7.3 81 1.5 W 41 50 22 27 1008.5 1008.5 7.8
21/12:00am 10.6 2.5 7.1 79 1.7 W 39 54 21 29 1008.1 1008.1 7.8
 
Date/Time
EST
Temp
°C
App
Temp
°C
Dew
Point
°C
Rel
Hum
%
Delta-T
°C
Wind Press
QNH
hPa
Press
MSL
hPa
Rain since
9am
mm
Dir  Spd
km/h
Gust
km/h
Spd
kts
Gust
kts
20/11:30pm 10.5 2.1 7.2 80 1.6 W 41 56 22 30 1008.1 1008.1 7.8
20/11:12pm 10.5 1.7 7.2 80 1.6 W 43 61 23 33 1008.1 1008.1 7.8
20/11:00pm 10.8 1.1 7.7 81 1.5 W 48 59 26 32 1008.2 1008.2 7.8
20/10:30pm 10.8 2.0 7.9 82 1.4 W 44 56 24 30 1007.8 1007.8 7.8
20/10:04pm 10.3 3.1 7.7 84 1.3 W 35 54 19 29 1007.8 1007.8 7.6
20/10:00pm 10.4 3.9 8.0 85 1.2 WNW 32 43 17 23 1007.9 1007.9 7.6
20/09:30pm 10.7 3.3 8.3 85 1.2 W 37 46 20 25 1007.6 1007.6 7.6
20/09:00pm 10.7 3.0 8.5 86 1.1 W 39 46 21 25 1007.6 1007.6 7.4
20/08:39pm 11.2 5.4 9.3 88 1.0 W 30 54 16 29 1007.6 1007.6 7.2
20/08:30pm 10.9 4.4 9.0 88 0.9 W 33 41 18 22 1007.4 1007.4 7.0
20/08:00pm 10.7 4.2 8.8 88 0.9 WNW 33 50 18 27 1007.7 1007.7 5.6
20/07:56pm 10.7 4.4 8.8 88 0.9 WNW 32 50 17 27 1007.5 1007.5 5.6
20/07:41pm 10.9 5.4 9.2 89 0.8 W 28 43 15 23 1007.2 1007.2 4.8
20/07:30pm 11.3 8.3 9.2 87 1.1 W 15 24 8 13 1007.6 1007.6 2.6
20/07:00pm 11.4 8.6 8.6 83 1.4 W 13 20 7 11 1007.3 1007.3 1.0

Latest Capital City Observations: Canberra | Sydney | Melbourne | Brisbane | Adelaide | Perth | Hobart | Darwin

Other Formats:

Comma delimited format used in spreadsheet applications
http://www.bom.gov.au/fwo/IDT60901/IDT60901.95967.axf

JavaScript Object Notation format (JSON) in row-major order
http://www.bom.gov.au/fwo/IDT60901/IDT60901.95967.json